Time;durP1;ratioP1;P1;durP2;ratioP2;P2;SDS_P1;SDS_P2;PMS_P1;PMS_P2;Temp;Humidity;BMP_temperature;BMP_pressure;BME280_temperature;BME280_humidity;BME280_pressure;Samples;Min_cycle;Max_cycle;Signal;HPM_P1;HPM_P2
2021/10/06 00:02:11;;;;;;;12.23;3.67;;;11.10;99.90;;;;;;5088290;28;20041;-72
2021/10/06 00:04:37;;;;;;;6.57;3.30;;;11.00;99.90;;;;;;5086061;28;20055;-72
2021/10/06 00:07:04;;;;;;;9.50;3.53;;;11.00;99.90;;;;;;5088885;28;20033;-72
2021/10/06 00:09:29;;;;;;;10.70;4.15;;;11.00;99.90;;;;;;5085587;28;20052;-72
2021/10/06 00:11:55;;;;;;;11.98;4.38;;;10.90;99.90;;;;;;5091880;28;20119;-72
2021/10/06 00:14:21;;;;;;;10.55;4.43;;;11.00;99.90;;;;;;5087097;28;20056;-72
2021/10/06 00:16:48;;;;;;;10.65;4.90;;;10.90;99.90;;;;;;5089843;28;20572;-72
2021/10/06 00:19:14;;;;;;;11.32;4.65;;;10.90;99.90;;;;;;5087304;28;20071;-73
2021/10/06 00:21:40;;;;;;;11.00;4.93;;;10.80;99.90;;;;;;5075033;28;20079;-72
2021/10/06 00:24:06;;;;;;;8.27;4.78;;;10.80;99.90;;;;;;5087072;28;20063;-72
2021/10/06 00:26:32;;;;;;;9.43;4.45;;;10.80;99.90;;;;;;5085711;28;20431;-73
2021/10/06 00:28:58;;;;;;;9.38;4.85;;;10.80;99.90;;;;;;5078006;28;20074;-72
2021/10/06 00:31:23;;;;;;;10.95;5.78;;;10.80;99.90;;;;;;5089543;28;20107;-72
2021/10/06 00:33:49;;;;;;;11.05;4.75;;;10.70;99.90;;;;;;5091458;28;20039;-71
2021/10/06 00:36:15;;;;;;;8.75;4.75;;;10.70;99.90;;;;;;5090714;28;20032;-72
2021/10/06 00:38:41;;;;;;;10.40;3.92;;;10.70;99.90;;;;;;5071816;28;20052;-72
2021/10/06 00:41:06;;;;;;;11.55;4.65;;;10.70;99.90;;;;;;5092827;28;20032;-72
2021/10/06 00:43:32;;;;;;;12.90;5.00;;;10.60;99.90;;;;;;5085407;28;20052;-72
2021/10/06 00:45:58;;;;;;;11.07;5.07;;;10.60;99.90;;;;;;5092133;28;20040;-72
2021/10/06 00:48:23;;;;;;;14.20;5.90;;;10.60;99.90;;;;;;5091911;28;20672;-72
2021/10/06 00:50:49;;;;;;;15.20;5.38;;;10.60;99.90;;;;;;5085299;28;20037;-72
2021/10/06 00:53:15;;;;;;;12.77;6.00;;;10.50;99.90;;;;;;5071918;28;20053;-72
2021/10/06 00:55:41;;;;;;;10.18;5.72;;;10.50;99.90;;;;;;5094620;28;20051;-72
2021/10/06 00:58:07;;;;;;;12.93;5.78;;;10.60;99.90;;;;;;5087505;28;20102;-72
2021/10/06 01:00:34;;;;;;;11.38;5.80;;;10.50;99.90;;;;;;5084649;28;20142;-72
2021/10/06 01:03:01;;;;;;;6.90;4.28;;;10.40;99.90;;;;;;5091126;28;20040;-72
2021/10/06 01:05:27;;;;;;;12.60;4.38;;;10.40;99.90;;;;;;5084848;28;20040;-72
2021/10/06 01:07:53;;;;;;;10.52;4.93;;;10.40;99.90;;;;;;5092878;28;20040;-72
2021/10/06 01:10:19;;;;;;;8.20;4.43;;;10.40;99.90;;;;;;5093523;28;20120;-71
2021/10/06 01:12:45;;;;;;;7.57;4.40;;;10.30;99.90;;;;;;5078352;28;20530;-71
2021/10/06 01:15:13;;;;;;;11.00;3.63;;;10.30;99.90;;;;;;5092301;28;20059;-72
2021/10/06 01:17:40;;;;;;;8.13;3.88;;;10.30;99.90;;;;;;5084436;28;20070;-72
2021/10/06 01:20:08;;;;;;;7.22;3.72;;;10.30;99.90;;;;;;5091094;28;20036;-72
2021/10/06 01:22:34;;;;;;;8.68;3.65;;;10.30;99.90;;;;;;5098694;28;20085;-72
2021/10/06 01:25:01;;;;;;;8.52;3.33;;;10.30;99.90;;;;;;5093545;28;20046;-71
2021/10/06 01:27:27;;;;;;;9.57;3.75;;;10.40;99.90;;;;;;5084701;28;20302;-71
2021/10/06 01:29:53;;;;;;;5.32;3.05;;;10.40;99.90;;;;;;5087876;28;20271;-71
2021/10/06 01:32:19;;;;;;;11.45;3.58;;;10.50;99.90;;;;;;5094492;28;20036;-73
2021/10/06 01:34:59;;;;;;;10.85;3.50;;;10.60;99.90;;;;;;5087685;28;20052;-71
2021/10/06 01:37:25;;;;;;;6.43;2.90;;;10.60;99.90;;;;;;5082448;28;20056;-71
2021/10/06 01:39:51;;;;;;;6.57;2.70;;;10.60;99.90;;;;;;5087335;28;20033;-71
2021/10/06 01:42:17;;;;;;;10.15;2.30;;;10.70;99.90;;;;;;5088025;28;20121;-71
2021/10/06 01:44:43;;;;;;;5.85;2.63;;;10.70;99.90;;;;;;5093082;28;20048;-71
2021/10/06 01:47:09;;;;;;;6.25;2.42;;;10.60;99.90;;;;;;5089860;28;20036;-71
2021/10/06 01:49:34;;;;;;;8.43;3.70;;;10.70;99.90;;;;;;5072807;28;20052;-71
2021/10/06 01:52:01;;;;;;;8.98;2.80;;;10.60;99.90;;;;;;5087644;28;20450;-71
2021/10/06 01:54:27;;;;;;;5.50;3.35;;;10.70;99.90;;;;;;5071303;28;20052;-73
2021/10/06 01:56:52;;;;;;;9.45;2.65;;;10.60;99.90;;;;;;5087254;28;20066;-73
2021/10/06 01:59:19;;;;;;;9.00;2.50;;;10.60;99.90;;;;;;5085623;28;20040;-73
2021/10/06 02:01:44;;;;;;;8.02;2.25;;;10.50;99.90;;;;;;5073839;28;20051;-71
2021/10/06 02:04:10;;;;;;;8.07;3.17;;;10.60;99.90;;;;;;5094350;28;20571;-71
2021/10/06 02:06:36;;;;;;;7.22;2.80;;;10.50;99.90;;;;;;5070653;28;20143;-71
2021/10/06 02:09:02;;;;;;;6.80;2.40;;;10.50;99.90;;;;;;5088419;28;20036;-71
2021/10/06 02:11:28;;;;;;;10.32;2.85;;;10.60;99.90;;;;;;5090800;28;20134;-71
2021/10/06 02:13:53;;;;;;;7.03;2.88;;;10.50;99.90;;;;;;5076933;28;20110;-71
2021/10/06 02:16:19;;;;;;;7.05;2.50;;;10.50;99.90;;;;;;5084932;28;20048;-72
2021/10/06 02:18:45;;;;;;;7.38;2.75;;;10.50;99.90;;;;;;5092169;28;20688;-71
2021/10/06 02:21:10;;;;;;;6.40;2.47;;;10.60;99.90;;;;;;5094569;28;20059;-71
2021/10/06 02:23:36;;;;;;;9.75;2.83;;;10.50;99.90;;;;;;5093379;28;20063;-71
2021/10/06 02:26:02;;;;;;;7.05;3.50;;;10.60;99.90;;;;;;5099344;28;20040;-71
2021/10/06 02:28:28;;;;;;;8.52;2.97;;;10.60;99.90;;;;;;5094976;28;20516;-72
2021/10/06 02:30:54;;;;;;;8.98;3.15;;;10.60;99.90;;;;;;5078234;28;20137;-72
2021/10/06 02:33:20;;;;;;;9.23;3.20;;;10.60;99.90;;;;;;5096455;28;20526;-72
2021/10/06 02:35:45;;;;;;;8.20;3.25;;;10.60;99.90;;;;;;5090633;28;20068;-72
2021/10/06 02:38:11;;;;;;;7.90;3.35;;;10.70;99.90;;;;;;5072196;28;20117;-72
2021/10/06 02:40:37;;;;;;;7.30;3.28;;;10.70;99.90;;;;;;5086833;28;20103;-72
2021/10/06 02:43:03;;;;;;;7.97;3.55;;;10.70;99.90;;;;;;5097013;28;20108;-72
2021/10/06 02:45:28;;;;;;;7.55;3.25;;;10.70;99.90;;;;;;5087646;28;20052;-72
2021/10/06 02:47:54;;;;;;;7.63;3.80;;;10.70;99.90;;;;;;5089297;28;20045;-72
2021/10/06 02:50:22;;;;;;;8.90;4.10;;;10.70;99.90;;;;;;5105182;28;20541;-72
2021/10/06 02:52:48;;;;;;;6.68;3.90;;;10.70;99.90;;;;;;5093082;28;20048;-72
2021/10/06 02:55:14;;;;;;;9.05;3.63;;;10.70;99.90;;;;;;5069031;28;20074;-72
2021/10/06 02:57:40;;;;;;;10.98;4.25;;;10.60;99.90;;;;;;5088039;28;20048;-72
2021/10/06 03:00:07;;;;;;;10.23;4.00;;;10.70;99.90;;;;;;5088072;28;20419;-72
2021/10/06 03:02:33;;;;;;;;;;;10.70;99.90;;;;;;5071777;28;20162;-72
2021/10/06 03:04:59;;;;;;;9.20;4.18;;;10.70;99.90;;;;;;5086788;28;19920;-72
2021/10/06 03:07:25;;;;;;;13.65;4.05;;;10.70;99.90;;;;;;5090536;28;20050;-72
2021/10/06 03:09:51;;;;;;;11.50;5.25;;;10.70;99.90;;;;;;5100229;28;20051;-72
2021/10/06 03:12:16;;;;;;;8.57;4.07;;;10.70;99.90;;;;;;5071531;28;20044;-72
2021/10/06 03:14:42;;;;;;;10.43;4.28;;;10.60;99.90;;;;;;5096809;28;20040;-72
2021/10/06 03:17:08;;;;;;;12.45;4.18;;;10.70;99.90;;;;;;5071789;28;20045;-72
2021/10/06 03:19:34;;;;;;;9.75;4.88;;;10.70;99.90;;;;;;5083421;28;20048;-71
2021/10/06 03:22:00;;;;;;;5.80;4.28;;;10.70;99.90;;;;;;5092986;28;20040;-71
2021/10/06 03:24:26;;;;;;;10.32;5.25;;;10.60;99.90;;;;;;5098058;28;20048;-71
2021/10/06 03:26:51;;;;;;;9.95;4.82;;;10.70;99.90;;;;;;5088736;28;20049;-71
2021/10/06 03:29:17;;;;;;;7.97;4.53;;;10.70;99.90;;;;;;5094405;28;20047;-71
2021/10/06 03:31:43;;;;;;;7.78;4.22;;;10.70;99.90;;;;;;5089316;28;20048;-70
2021/10/06 03:34:08;;;;;;;13.50;5.00;;;10.70;99.90;;;;;;5087567;28;20071;-71
2021/10/06 03:36:34;;;;;;;8.57;4.53;;;10.70;99.90;;;;;;5074141;28;20044;-71
2021/10/06 03:39:00;;;;;;;9.82;5.13;;;10.80;99.90;;;;;;5080188;28;20140;-71
2021/10/06 03:41:26;;;;;;;8.75;5.43;;;10.80;99.90;;;;;;5077863;28;20036;-70
2021/10/06 03:43:52;;;;;;;8.67;5.13;;;10.80;99.90;;;;;;5092830;28;20056;-70
2021/10/06 03:46:18;;;;;;;10.93;5.55;;;10.90;99.90;;;;;;5089297;28;20041;-71
2021/10/06 03:48:45;;;;;;;6.93;4.88;;;10.80;99.90;;;;;;5092054;28;20035;-70
2021/10/06 03:51:11;;;;;;;11.50;5.07;;;10.90;99.90;;;;;;5095230;28;20054;-71
2021/10/06 03:53:37;;;;;;;13.52;5.88;;;10.90;99.90;;;;;;5086412;28;20041;-71
2021/10/06 03:56:03;;;;;;;13.85;6.55;;;10.90;99.90;;;;;;5088710;28;20275;-71
2021/10/06 03:58:29;;;;;;;10.85;5.93;;;10.90;99.90;;;;;;5087301;28;20495;-71
2021/10/06 04:00:55;;;;;;;15.40;6.15;;;10.90;99.90;;;;;;5071245;28;20048;-71
2021/10/06 04:03:21;;;;;;;10.93;6.45;;;10.90;99.90;;;;;;5068968;28;20410;-71
2021/10/06 04:05:47;;;;;;;18.80;7.32;;;10.90;99.90;;;;;;5086397;28;20151;-72
2021/10/06 04:08:13;;;;;;;11.93;7.60;;;10.90;99.90;;;;;;5100734;28;20407;-72
2021/10/06 04:10:39;;;;;;;16.50;8.35;;;10.70;99.90;;;;;;5094917;28;20075;-72
2021/10/06 04:13:05;;;;;;;14.70;8.27;;;10.60;99.90;;;;;;5067477;28;20040;-72
2021/10/06 04:15:30;;;;;;;18.38;8.00;;;10.50;99.90;;;;;;5069246;28;20078;-72
2021/10/06 04:17:56;;;;;;;13.73;8.02;;;10.50;99.90;;;;;;5090715;28;20043;-72
2021/10/06 04:20:22;;;;;;;11.95;7.70;;;10.50;99.90;;;;;;5082426;28;20111;-72
2021/10/06 04:22:48;;;;;;;22.00;8.13;;;10.50;99.90;;;;;;5085901;28;20044;-72
2021/10/06 04:25:13;;;;;;;13.95;7.55;;;10.40;99.90;;;;;;5070220;28;20123;-72
2021/10/06 04:27:39;;;;;;;15.88;7.72;;;10.50;99.90;;;;;;5077717;28;20044;-72
2021/10/06 04:30:06;;;;;;;14.07;8.05;;;10.50;99.90;;;;;;5095015;28;20036;-72
2021/10/06 04:32:32;;;;;;;11.85;6.57;;;10.40;99.90;;;;;;5086789;28;20148;-72
2021/10/06 04:34:58;;;;;;;13.25;7.43;;;10.40;99.90;;;;;;5068060;28;20068;-72
2021/10/06 04:37:23;;;;;;;15.20;7.57;;;10.50;99.90;;;;;;5093872;28;20040;-72
2021/10/06 04:39:49;;;;;;;10.02;7.13;;;10.40;99.90;;;;;;5101896;28;20088;-71
2021/10/06 04:42:15;;;;;;;10.25;6.35;;;10.40;99.90;;;;;;5090651;28;20065;-71
2021/10/06 04:44:41;;;;;;;15.82;6.30;;;10.40;99.90;;;;;;5090017;28;20105;-71
2021/10/06 04:47:06;;;;;;;10.77;5.88;;;10.40;99.90;;;;;;5101410;28;20040;-71
2021/10/06 04:49:32;;;;;;;14.80;5.63;;;10.40;99.90;;;;;;5089768;28;20422;-71
2021/10/06 04:51:58;;;;;;;10.82;6.03;;;10.40;99.90;;;;;;5102369;28;20044;-71
2021/10/06 04:54:24;;;;;;;13.20;6.03;;;10.40;99.90;;;;;;5091932;28;20048;-72
2021/10/06 04:56:50;;;;;;;14.18;6.05;;;10.40;99.90;;;;;;5084511;28;20047;-72
2021/10/06 04:59:15;;;;;;;13.63;5.43;;;10.40;99.90;;;;;;5097810;28;20040;-71
2021/10/06 05:01:41;;;;;;;8.93;4.82;;;10.40;99.90;;;;;;5084601;28;20094;-71
2021/10/06 05:04:07;;;;;;;13.75;5.28;;;10.40;99.90;;;;;;5072696;28;20123;-71
2021/10/06 05:06:32;;;;;;;9.52;3.85;;;10.50;99.90;;;;;;5087362;28;20412;-71
2021/10/06 05:08:58;;;;;;;10.77;4.85;;;10.40;99.90;;;;;;5059818;28;20055;-71
2021/10/06 05:11:24;;;;;;;9.02;3.70;;;10.40;99.90;;;;;;5098857;28;20067;-71
2021/10/06 05:13:50;;;;;;;8.65;3.75;;;10.40;99.90;;;;;;5096005;28;20053;-71
2021/10/06 05:16:16;;;;;;;8.93;3.50;;;10.50;99.90;;;;;;5084365;28;20052;-71
2021/10/06 05:18:42;;;;;;;8.93;2.88;;;10.40;99.90;;;;;;5099328;28;20041;-71
2021/10/06 05:21:07;;;;;;;5.07;2.75;;;10.40;99.90;;;;;;5097982;28;20132;-71
2021/10/06 05:23:33;;;;;;;7.22;3.03;;;10.40;99.90;;;;;;5102316;28;20048;-71
2021/10/06 05:25:59;;;;;;;8.80;2.92;;;10.40;99.90;;;;;;5074713;28;20068;-71
2021/10/06 05:28:25;;;;;;;7.75;2.58;;;10.40;99.90;;;;;;5097022;28;20063;-71
2021/10/06 05:30:51;;;;;;;5.25;2.90;;;10.40;99.90;;;;;;5095483;28;20079;-71
2021/10/06 05:33:16;;;;;;;9.25;3.08;;;10.40;99.90;;;;;;5057828;28;20048;-71
2021/10/06 05:35:42;;;;;;;9.50;2.85;;;10.40;99.90;;;;;;5081134;28;20069;-71
2021/10/06 05:38:08;;;;;;;5.60;2.85;;;10.40;99.90;;;;;;5074219;28;20044;-71
2021/10/06 05:44:21;;;;;;;9.00;3.53;;;10.50;99.90;;;;;;5084165;28;20164;-71
2021/10/06 05:46:47;;;;;;;9.40;3.03;;;10.50;99.90;;;;;;5075915;28;20060;-71
2021/10/06 05:49:13;;;;;;;12.23;3.90;;;10.60;99.90;;;;;;5073368;28;20048;-71
2021/10/06 05:51:39;;;;;;;5.43;4.20;;;10.50;99.90;;;;;;5074839;28;20032;-71
2021/10/06 05:54:05;;;;;;;7.97;4.07;;;10.60;99.90;;;;;;5059814;28;20078;-71
2021/10/06 05:56:31;;;;;;;8.75;4.53;;;10.40;99.90;;;;;;5072129;28;20068;-71
2021/10/06 05:58:56;;;;;;;5.88;4.03;;;10.50;99.90;;;;;;5069960;28;20048;-71
2021/10/06 06:01:25;;;;;;;4.85;4.13;;;10.50;99.90;;;;;;5055941;28;20112;-71
2021/10/06 06:03:51;;;;;;;6.10;4.70;;;10.50;99.90;;;;;;5072593;28;20037;-71
2021/10/06 06:06:16;;;;;;;11.55;4.95;;;10.50;99.90;;;;;;5069640;28;20089;-71
2021/10/06 06:08:42;;;;;;;8.85;4.80;;;10.50;99.90;;;;;;5079471;28;20045;-71
2021/10/06 06:11:08;;;;;;;11.20;5.63;;;10.50;99.90;;;;;;5053164;28;20069;-71
2021/10/06 06:13:34;;;;;;;10.55;4.53;;;10.50;99.90;;;;;;5075215;28;20573;-71
2021/10/06 06:16:00;;;;;;;5.95;3.72;;;10.60;99.90;;;;;;5077523;28;20068;-71
2021/10/06 06:18:25;;;;;;;7.88;4.05;;;10.60;99.90;;;;;;5077377;28;20133;-71
2021/10/06 06:20:51;;;;;;;9.40;3.78;;;10.60;99.90;;;;;;5066977;28;20037;-71
2021/10/06 06:23:16;;;;;;;8.57;3.75;;;10.60;99.90;;;;;;5055713;28;20037;-72
2021/10/06 06:25:42;;;;;;;6.35;3.72;;;10.50;99.90;;;;;;5072043;28;20098;-72
2021/10/06 06:28:08;;;;;;;6.45;3.55;;;10.60;99.90;;;;;;5077592;28;20060;-71
2021/10/06 06:30:34;;;;;;;8.55;4.22;;;10.60;99.90;;;;;;5067491;28;20445;-71
2021/10/06 06:33:00;;;;;;;4.60;3.17;;;10.60;99.90;;;;;;5071781;28;20049;-71
2021/10/06 06:35:25;;;;;;;10.63;3.22;;;10.60;99.90;;;;;;5078974;28;20055;-70
2021/10/06 06:37:51;;;;;;;4.38;3.10;;;10.60;99.90;;;;;;5071985;28;20043;-71
2021/10/06 06:40:17;;;;;;;5.53;3.58;;;10.60;99.90;;;;;;5071735;28;20041;-70
2021/10/06 06:42:42;;;;;;;7.68;2.90;;;10.60;99.90;;;;;;5083938;28;20048;-70
2021/10/06 06:45:10;;;;;;;8.63;3.95;;;10.60;99.90;;;;;;5082368;28;20056;-71
2021/10/06 06:47:35;;;;;;;9.27;3.92;;;10.60;99.90;;;;;;5083104;28;20047;-70
2021/10/06 06:50:01;;;;;;;6.53;3.55;;;10.60;99.90;;;;;;5089585;28;20518;-70
2021/10/06 06:52:27;;;;;;;4.93;2.83;;;10.60;99.90;;;;;;5071583;28;20082;-70
2021/10/06 06:54:52;;;;;;;10.02;3.35;;;10.70;99.90;;;;;;5085183;28;20048;-71
2021/10/06 06:57:18;;;;;;;3.55;2.75;;;10.70;99.90;;;;;;5072690;28;20043;-70
2021/10/06 06:59:44;;;;;;;6.28;3.25;;;10.70;99.90;;;;;;5082156;28;20103;-71
2021/10/06 07:02:13;;;;;;;5.45;3.10;;;10.80;99.90;;;;;;5079243;28;20500;-70
2021/10/06 07:04:39;;;;;;;6.15;3.17;;;10.80;99.90;;;;;;5077845;28;20123;-70
2021/10/06 07:07:05;;;;;;;7.75;3.53;;;10.80;99.90;;;;;;5097183;28;20052;-71
2021/10/06 07:09:34;;;;;;;7.47;3.13;;;10.90;99.90;;;;;;5092497;28;20439;-70
2021/10/06 07:12:00;;;;;;;5.13;2.80;;;10.90;99.90;;;;;;5088728;28;20082;-70
2021/10/06 07:14:26;;;;;;;7.30;3.28;;;11.00;99.90;;;;;;5085722;28;20056;-70
2021/10/06 07:16:51;;;;;;;7.88;3.17;;;11.00;99.90;;;;;;5089715;28;20043;-72
2021/10/06 07:19:17;;;;;;;4.55;2.60;;;11.10;99.90;;;;;;5105562;28;20068;-71
2021/10/06 07:21:46;;;;;;;8.00;3.88;;;11.10;99.90;;;;;;5099133;28;20043;-71
2021/10/06 07:24:15;;;;;;;9.43;3.28;;;11.20;99.90;;;;;;5082797;28;20032;-72
2021/10/06 07:26:44;;;;;;;4.13;2.85;;;11.10;99.90;;;;;;5075421;28;20088;-71
2021/10/06 07:29:10;;;;;;;8.60;3.35;;;11.20;99.90;;;;;;5104551;28;20082;-70
2021/10/06 07:31:36;;;;;;;11.10;2.85;;;11.20;99.90;;;;;;5104055;28;20070;-70
2021/10/06 07:34:02;;;;;;;5.03;2.63;;;11.20;99.90;;;;;;5086622;28;20044;-70
2021/10/06 07:36:28;;;;;;;8.07;2.83;;;11.20;99.90;;;;;;5083691;28;20053;-71
2021/10/06 07:38:56;;;;;;;3.60;2.38;;;11.30;99.90;;;;;;5101625;28;20044;-71
2021/10/06 07:41:21;;;;;;;7.07;3.88;;;11.30;99.90;;;;;;5084266;28;20088;-71
2021/10/06 07:43:47;;;;;;;4.07;2.00;;;11.40;99.90;;;;;;5077590;28;20072;-71
2021/10/06 07:46:13;;;;;;;5.05;2.10;;;11.40;99.90;;;;;;5079817;28;20084;-71
2021/10/06 07:48:40;;;;;;;5.55;2.30;;;11.50;99.90;;;;;;5081879;28;20033;-71
2021/10/06 07:51:05;;;;;;;2.55;2.10;;;11.60;99.90;;;;;;5083396;28;20079;-71
2021/10/06 07:53:31;;;;;;;5.10;2.30;;;11.60;99.90;;;;;;5080759;28;20056;-71
2021/10/06 07:55:57;;;;;;;5.38;2.30;;;11.70;99.90;;;;;;5081818;28;21309;-71
2021/10/06 07:58:23;;;;;;;5.50;2.10;;;11.70;99.90;;;;;;5083644;28;20063;-70
2021/10/06 08:00:48;;;;;;;4.82;1.92;;;11.70;99.90;;;;;;5081829;28;20040;-71
2021/10/06 08:03:14;;;;;;;4.93;2.00;;;11.90;99.90;;;;;;5060953;28;20041;-70
2021/10/06 08:05:40;;;;;;;3.55;1.60;;;11.90;99.90;;;;;;5081242;28;20134;-71
2021/10/06 08:08:05;;;;;;;2.78;1.83;;;12.00;99.90;;;;;;5082345;28;20067;-71
2021/10/06 08:10:31;;;;;;;5.03;1.83;;;12.10;99.90;;;;;;5082681;28;20040;-71
2021/10/06 08:12:59;;;;;;;5.32;2.28;;;12.10;99.90;;;;;;5077437;28;20048;-71
2021/10/06 08:15:25;;;;;;;2.75;1.85;;;12.10;99.90;;;;;;5081715;28;20075;-71
2021/10/06 08:17:51;;;;;;;2.28;1.80;;;12.00;99.90;;;;;;5076094;28;20404;-70
2021/10/06 08:20:17;;;;;;;2.92;1.63;;;12.00;99.90;;;;;;5079699;28;20060;-70
2021/10/06 08:22:43;;;;;;;2.67;1.85;;;12.00;99.90;;;;;;5079103;28;20460;-70
2021/10/06 08:25:08;;;;;;;3.08;2.10;;;12.00;99.90;;;;;;5073862;28;20149;-69
2021/10/06 08:27:34;;;;;;;5.43;1.73;;;12.00;99.90;;;;;;5065116;28;20036;-69
2021/10/06 08:30:00;;;;;;;5.05;1.75;;;12.00;99.90;;;;;;5079874;28;20048;-70
2021/10/06 08:32:26;;;;;;;3.63;1.70;;;12.10;99.90;;;;;;5080624;28;20036;-70
2021/10/06 08:34:53;;;;;;;1.80;1.40;;;12.10;99.90;;;;;;5082368;28;20048;-69
2021/10/06 08:37:19;;;;;;;;;;;12.00;99.90;;;;;;5077479;28;20104;-69
2021/10/06 08:39:45;;;;;;;2.63;1.88;;;12.00;99.90;;;;;;5079181;28;19976;-70
2021/10/06 08:42:11;;;;;;;4.15;1.98;;;11.90;99.90;;;;;;5081489;28;20059;-70
2021/10/06 08:44:38;;;;;;;2.30;1.63;;;11.90;99.90;;;;;;5084306;28;20485;-70
2021/10/06 08:47:05;;;;;;;3.47;1.70;;;11.90;99.90;;;;;;5081616;28;20105;-70
2021/10/06 08:49:32;;;;;;;;;;;12.00;99.90;;;;;;5100487;28;20048;-70
2021/10/06 08:51:57;;;;;;;2.90;1.30;;;12.00;99.90;;;;;;5101299;28;19920;-70
2021/10/06 08:54:23;;;;;;;4.70;1.92;;;11.90;99.90;;;;;;5080229;28;20078;-70
2021/10/06 08:56:50;;;;;;;3.92;1.60;;;11.90;99.90;;;;;;5098301;28;20047;-70
2021/10/06 08:59:15;;;;;;;2.40;1.55;;;11.90;99.90;;;;;;5102998;28;20039;-69
2021/10/06 09:01:45;;;;;;;2.00;1.35;;;12.00;99.90;;;;;;5082703;28;20135;-71
2021/10/06 09:04:11;;;;;;;2.00;1.60;;;12.00;99.90;;;;;;5085071;28;20066;-70
2021/10/06 09:06:42;;;;;;;2.60;2.00;;;12.00;99.90;;;;;;5102377;28;20035;-70
2021/10/06 09:09:20;;;;;;;3.53;1.85;;;11.90;99.90;;;;;;5084284;28;20043;-69
2021/10/06 09:11:48;;;;;;;4.50;2.03;;;12.00;99.90;;;;;;5098641;28;20055;-71
2021/10/06 09:14:15;;;;;;;4.15;2.17;;;12.00;99.90;;;;;;5100404;28;20055;-71
2021/10/06 09:16:41;;;;;;;5.22;1.90;;;12.10;99.90;;;;;;5102242;28;20036;-70
2021/10/06 09:19:08;;;;;;;2.85;1.90;;;12.40;99.90;;;;;;5083332;28;20496;-70
2021/10/06 09:21:54;;;;;;;2.05;1.80;;;12.60;99.90;;;;;;5077832;28;20135;-71
2021/10/06 09:24:20;;;;;;;2.85;1.70;;;12.80;99.90;;;;;;5077646;28;20055;-70
2021/10/06 09:26:46;;;;;;;2.00;1.50;;;13.10;99.90;;;;;;5067336;28;20040;-70
2021/10/06 09:29:21;;;;;;;3.67;1.80;;;13.20;99.90;;;;;;5082775;28;20040;-70
2021/10/06 09:31:47;;;;;;;2.70;1.40;;;13.20;99.90;;;;;;5082374;28;20075;-70
2021/10/06 09:34:13;;;;;;;5.13;2.00;;;13.20;99.90;;;;;;5078428;28;20043;-70
2021/10/06 09:36:39;;;;;;;5.50;1.52;;;13.40;99.90;;;;;;5092096;28;20044;-70
2021/10/06 09:39:09;;;;;;;4.15;1.80;;;13.30;99.90;;;;;;5099883;28;20348;-70
2021/10/06 09:41:35;;;;;;;3.97;1.90;;;13.30;99.90;;;;;;5081520;28;20052;-69
2021/10/06 09:44:18;;;;;;;3.15;1.60;;;13.40;99.90;;;;;;5081270;28;20526;-70
2021/10/06 09:46:52;;;;;;;2.38;1.65;;;13.30;99.90;;;;;;5097958;28;20097;-69
2021/10/06 09:49:29;;;;;;;4.05;2.10;;;13.20;99.90;;;;;;5084116;28;20506;-69
2021/10/06 09:52:14;;;;;;;3.90;1.88;;;13.10;99.90;;;;;;5100090;28;20062;-69
2021/10/06 09:54:40;;;;;;;2.50;1.70;;;13.30;99.90;;;;;;5065135;28;20524;-70
2021/10/06 09:57:06;;;;;;;2.35;1.80;;;13.40;99.90;;;;;;5080359;28;20048;-70
2021/10/06 09:59:33;;;;;;;2.53;1.38;;;13.60;99.90;;;;;;5081390;28;20086;-70
2021/10/06 10:01:59;;;;;;;2.05;1.55;;;13.60;99.90;;;;;;5094215;28;20051;-72
2021/10/06 10:04:28;;;;;;;2.47;1.48;;;13.80;99.90;;;;;;5082758;28;20052;-70
2021/10/06 10:06:55;;;;;;;1.75;1.30;;;13.90;99.90;;;;;;5079976;28;20060;-70
2021/10/06 10:09:21;;;;;;;5.78;1.80;;;13.80;99.90;;;;;;5099473;28;20467;-69
2021/10/06 10:11:47;;;;;;;2.72;1.60;;;13.80;99.90;;;;;;5079943;28;20071;-71
2021/10/06 10:14:13;;;;;;;3.42;1.58;;;13.70;99.90;;;;;;5099330;28;20039;-68
2021/10/06 10:16:39;;;;;;;5.80;1.65;;;13.80;99.90;;;;;;5102508;28;20040;-70
2021/10/06 10:19:12;;;;;;;3.72;1.70;;;13.80;99.90;;;;;;5101468;28;20063;-71
2021/10/06 10:21:42;;;;;;;3.90;1.67;;;14.00;99.90;;;;;;5099674;28;20040;-71
2021/10/06 10:24:23;;;;;;;2.92;2.08;;;14.20;99.90;;;;;;5071579;28;20049;-72
2021/10/06 10:27:01;;;;;;;2.25;1.50;;;14.30;99.90;;;;;;5078872;28;20045;-70
2021/10/06 10:29:33;;;;;;;2.63;1.50;;;14.30;99.90;;;;;;5072520;28;20055;-71
2021/10/06 10:32:19;;;;;;;4.10;1.40;;;14.10;99.90;;;;;;5099031;28;20045;-70
2021/10/06 10:35:08;;;;;;;1.70;1.17;;;14.30;99.90;;;;;;5079231;28;20092;-72
2021/10/06 10:37:46;;;;;;;4.40;1.33;;;14.50;99.90;;;;;;5100989;28;20479;-70
2021/10/06 10:40:30;;;;;;;;;;;14.70;99.90;;;;;;5077743;28;20063;-70
2021/10/06 10:42:57;;;;;;;2.33;1.08;;;14.90;99.90;;;;;;5099303;28;19920;-70
2021/10/06 10:45:43;;;;;;;6.40;1.55;;;15.00;99.90;;;;;;5087142;28;20075;-71
2021/10/06 10:48:15;;;;;;;2.25;1.10;;;15.20;99.90;;;;;;5083048;28;20073;-70
2021/10/06 10:51:01;;;;;;;2.05;1.02;;;15.20;99.90;;;;;;5102437;28;20036;-70
2021/10/06 10:53:52;;;;;;;2.83;1.40;;;15.50;99.90;;;;;;5078140;28;20052;-71
2021/10/06 10:56:47;;;;;;;2.10;1.27;;;15.70;99.90;;;;;;5100470;28;20391;-71
2021/10/06 10:59:22;;;;;;;2.20;1.10;;;15.80;99.90;;;;;;5085125;28;20535;-70
2021/10/06 11:01:54;;;;;;;2.40;1.10;;;15.90;99.90;;;;;;5085147;28;20037;-71
2021/10/06 11:04:34;;;;;;;4.28;1.70;;;15.80;99.90;;;;;;5088316;28;20040;-71
2021/10/06 11:07:18;;;;;;;5.18;2.58;;;15.60;99.90;;;;;;5085469;28;20047;-70
2021/10/06 11:09:45;;;;;;;2.08;1.30;;;15.80;99.90;;;;;;5078770;28;20040;-71
2021/10/06 11:12:14;;;;;;;4.05;1.58;;;15.80;99.90;;;;;;5099321;28;20628;-70
2021/10/06 11:14:44;;;;;;;5.35;1.50;;;15.80;99.90;;;;;;5099341;28;20052;-71
2021/10/06 11:17:15;;;;;;;5.88;1.60;;;15.80;99.90;;;;;;5086954;28;20086;-70
2021/10/06 11:19:50;;;;;;;3.25;1.58;;;15.80;99.90;;;;;;5066826;28;20163;-70
2021/10/06 11:22:22;;;;;;;6.20;1.77;;;15.50;99.90;;;;;;5099935;28;20107;-69
2021/10/06 11:24:58;;;;;;;3.33;1.40;;;15.70;99.90;;;;;;5099892;28;20553;-67
2021/10/06 11:27:26;;;;;;;3.95;1.27;;;15.70;99.90;;;;;;5103424;28;20055;-66
2021/10/06 11:29:54;;;;;;;;;;;15.80;99.90;;;;;;5102028;28;20044;-66
2021/10/06 11:32:20;;;;;;;5.18;1.92;;;16.30;99.90;;;;;;5099753;28;19968;-67
2021/10/06 11:34:46;;;;;;;3.90;1.92;;;16.70;99.90;;;;;;5102643;28;20546;-66
2021/10/06 11:37:16;;;;;;;3.25;1.10;;;16.70;99.90;;;;;;5102918;28;20488;-66
2021/10/06 11:39:43;;;;;;;3.92;1.30;;;17.60;99.90;;;;;;5102289;28;20103;-66
2021/10/06 11:42:10;;;;;;;2.15;1.00;;;17.90;99.90;;;;;;5102566;28;20036;-66
2021/10/06 11:44:36;;;;;;;2.25;0.77;;;18.90;99.90;;;;;;5096625;28;20052;-67
2021/10/06 11:47:06;;;;;;;1.95;0.95;;;19.70;99.90;;;;;;5102310;28;20061;-67
2021/10/06 11:49:40;;;;;;;4.22;0.90;;;20.30;99.90;;;;;;5103383;28;20095;-67
2021/10/06 11:52:07;;;;;;;3.30;0.90;;;19.90;99.90;;;;;;5084565;28;20032;-67
2021/10/06 11:54:33;;;;;;;3.33;0.77;;;19.70;99.90;;;;;;5099132;28;20058;-66
2021/10/06 11:57:01;;;;;;;1.75;0.80;;;19.70;99.90;;;;;;5098662;28;20508;-66
2021/10/06 11:59:30;;;;;;;3.30;0.95;;;19.40;99.90;;;;;;5102382;28;20039;-66
2021/10/06 12:01:58;;;;;;;2.97;0.90;;;19.20;99.90;;;;;;5101592;28;20044;-66
2021/10/06 12:04:31;;;;;;;2.35;0.88;;;19.10;99.90;;;;;;5101733;28;20055;-66
2021/10/06 12:07:09;;;;;;;2.97;1.20;;;18.30;99.90;;;;;;5104208;28;20128;-67
2021/10/06 12:09:41;;;;;;;3.70;0.80;;;17.70;99.90;;;;;;5102679;28;21818;-66
2021/10/06 12:12:16;;;;;;;3.38;1.52;;;17.10;99.90;;;;;;5101979;28;20050;-66
2021/10/06 12:14:49;;;;;;;2.97;1.00;;;16.80;99.90;;;;;;5100274;28;20045;-67
2021/10/06 12:17:42;;;;;;;1.45;0.95;;;16.60;99.90;;;;;;5096155;28;20048;-67
2021/10/06 12:20:14;;;;;;;3.42;1.48;;;15.90;99.90;;;;;;5101410;28;20052;-66
2021/10/06 12:22:43;;;;;;;2.10;0.90;;;15.80;99.90;;;;;;5084389;28;20044;-66
2021/10/06 12:25:12;;;;;;;1.42;1.00;;;15.40;99.90;;;;;;5097642;28;20174;-66
2021/10/06 12:27:42;;;;;;;3.10;1.30;;;15.30;99.90;;;;;;5100690;28;20119;-66
2021/10/06 12:30:25;;;;;;;4.28;1.20;;;15.20;99.90;;;;;;5103965;28;20032;-66
2021/10/06 12:33:11;;;;;;;3.08;1.20;;;15.00;99.90;;;;;;5102237;28;20044;-67
2021/10/06 12:35:44;;;;;;;4.70;1.20;;;15.10;99.90;;;;;;5102321;28;20093;-63
2021/10/06 12:38:10;;;;;;;3.90;1.20;;;15.10;99.90;;;;;;5103310;28;20118;-63
2021/10/06 12:40:53;;;;;;;7.15;1.95;;;14.90;99.90;;;;;;5100789;28;20056;-63
2021/10/06 12:43:20;;;;;;;3.55;1.73;;;14.90;99.90;;;;;;5099576;28;20067;-63
2021/10/06 12:46:07;;;;;;;2.72;1.45;;;14.90;99.90;;;;;;5099339;28;20100;-63
2021/10/06 12:48:35;;;;;;;4.15;1.60;;;15.00;99.90;;;;;;5077565;28;20059;-63
2021/10/06 12:51:01;;;;;;;2.53;1.30;;;15.50;99.90;;;;;;5097695;28;20040;-63
2021/10/06 12:53:27;;;;;;;2.13;1.02;;;16.00;99.90;;;;;;5102728;28;20036;-63